This is the latest recevied weather packets stored in our database for station/object N5PUP-13. If no packets are shown the sender has not sent any weather packets the latest 10 day(s).
| Time | Temp. | Humidity | Pressure | Rain* | Wind** | Luminosity | Snow |
|---|---|---|---|---|---|---|---|
| 1787429700 | 36.67° C | 33% | 1017 hPa | 0 mm | - | - | - |
| 1787429400 | 37.22° C | 33% | 1017 hPa | 0 mm | - | - | - |
| 1787429100 | 37.22° C | 32% | 1017.2 hPa | 0 mm | - | - | - |
| 1787428800 | 37.22° C | 32% | 1017.1 hPa | 0 mm | - | - | - |
| 1787428500 | 37.22° C | 32% | 1017.2 hPa | 0 mm | - | - | - |
| 1787428200 | 37.22° C | 32% | 1017.3 hPa | 0 mm | - | - | - |
| 1787427900 | 36.67° C | 32% | 1017.4 hPa | 0 mm | - | - | - |
| 1787427600 | 37.22° C | 32% | 1017.4 hPa | 0 mm | - | - | - |
| 1787427300 | 37.22° C | 33% | 1017.6 hPa | 0 mm | - | - | - |
| 1787427000 | 37.22° C | 33% | 1017.6 hPa | 0 mm | - | - | - |
| 1787426700 | 36.11° C | 34% | 1017.5 hPa | 0 mm | - | - | - |
| 1787426400 | 37.22° C | 32% | 1017.5 hPa | 0 mm | - | - | - |
| 1787426100 | 36.11° C | 35% | 1017.6 hPa | 0 mm | - | - | - |
| 1787425800 | 37.22° C | 33% | 1017.7 hPa | 0 mm | - | - | - |
| 1787425500 | 36.67° C | 33% | 1017.7 hPa | 0 mm | - | - | - |
| 1787425200 | 36.67° C | 33% | 1017.8 hPa | 0 mm | - | - | - |
| 1787424900 | 35.56° C | 35% | 1017.9 hPa | 0 mm | - | - | - |
| 1787424600 | 34.44° C | 37% | 1018 hPa | 0 mm | - | - | - |
| 1787424300 | 35° C | 37% | 1018.1 hPa | 0 mm | - | - | - |
| 1787424000 | 35.56° C | 36% | 1018.2 hPa | 0 mm | - | - | - |
| 1787423700 | 36.11° C | 34% | 1018.2 hPa | 0 mm | - | - | - |
| 1787423400 | 36.11° C | 35% | 1018.4 hPa | 0 mm | - | - | - |
| 1787423100 | 35.56° C | 35% | 1018.5 hPa | 0 mm | - | - | - |
| 1787422800 | 35.56° C | 35% | 1018.6 hPa | 0 mm | - | - | - |
| 1787422500 | 35° C | 36% | 1018.5 hPa | 0 mm | - | - | - |
* Rain latest hour (hover to see other rain measurements)
** Current wind speed in m/s (hover to see current wind gust speed)